Time;durP1;ratioP1;P1;durP2;ratioP2;P2;SDS_P1;SDS_P2;PMS_P1;PMS_P2;Temp;Humidity;BMP_temperature;BMP_pressure;BME280_temperature;BME280_humidity;BME280_pressure;Samples;Min_cycle;Max_cycle;Signal;HPM_P1;HPM_P2
2021/12/05 00:22:46;;;;;;;3.25;1.40;;;3.60;99.90;;;;;;4933690;29;20062;-84
2021/12/05 00:25:20;;;;;;;2.58;2.40;;;3.60;99.90;;;;;;4933691;29;20070;-81
2021/12/05 00:27:52;;;;;;;12.32;2.03;;;3.70;99.90;;;;;;4933567;29;20086;-82
2021/12/05 00:33:04;;;;;;;1.98;1.88;;;3.70;99.90;;;;;;4941218;29;20086;-82
2021/12/05 00:51:40;;;;;;;0.40;0.40;;;3.80;99.90;;;;;;5031195;28;20045;-81
2021/12/05 01:02:32;;;;;;;1.00;0.88;;;3.80;99.90;;;;;;5032311;28;20052;-81
2021/12/05 01:05:34;;;;;;;2.05;0.90;;;3.80;99.90;;;;;;5030833;28;20049;-80
2021/12/05 01:15:41;;;;;;;4.70;2.05;;;3.70;99.90;;;;;;5032694;28;20046;-80
2021/12/05 01:18:13;;;;;;;1.00;0.77;;;3.70;99.90;;;;;;5047620;28;20045;-81
2021/12/05 01:20:42;;;;;;;0.30;0.30;;;3.70;99.90;;;;;;5030940;28;20405;-81
2021/12/05 01:23:20;;;;;;;0.52;0.52;;;3.70;99.90;;;;;;5030815;28;20069;-81
2021/12/05 01:33:49;;;;;;;0.70;0.70;;;3.60;99.90;;;;;;5031997;28;20050;-80
2021/12/05 02:00:25;;;;;;;1.13;1.05;;;3.50;99.90;;;;;;5034025;28;20184;-80
2021/12/05 02:11:05;;;;;;;0.63;0.63;;;3.60;99.90;;;;;;5034067;28;20136;-80
2021/12/05 02:35:25;;;;;;;1.80;1.67;;;3.70;99.90;;;;;;5033673;28;20091;-80
2021/12/05 02:43:31;;;;;;;0.60;0.60;;;3.60;99.90;;;;;;5033437;28;20058;-80
2021/12/05 02:46:01;;;;;;;0.40;0.40;;;3.70;99.90;;;;;;5033524;28;20502;-80
2021/12/05 02:48:29;;;;;;;1.25;1.20;;;3.70;99.90;;;;;;5034800;28;20042;-81
2021/12/05 02:50:57;;;;;;;0.28;0.28;;;3.70;99.90;;;;;;5033265;28;20042;-81
2021/12/05 02:53:33;;;;;;;1.15;1.00;;;3.70;99.90;;;;;;5032474;28;20160;-81
2021/12/05 02:55:59;;;;;;;0.80;0.80;;;3.70;99.90;;;;;;5034561;28;20052;-81
2021/12/05 02:58:33;;;;;;;1.27;1.20;;;3.70;99.90;;;;;;5034650;28;20084;-79
2021/12/05 03:01:10;;;;;;;0.52;0.40;;;3.70;99.90;;;;;;5032824;28;20136;-80
2021/12/05 03:03:36;;;;;;;1.30;1.30;;;3.70;99.90;;;;;;5034098;28;20168;-81
2021/12/05 03:06:15;;;;;;;0.75;0.75;;;3.70;99.90;;;;;;5032694;28;20111;-81
2021/12/05 03:08:41;;;;;;;1.60;1.20;;;3.80;99.90;;;;;;5034250;28;20046;-81
2021/12/05 03:11:08;;;;;;;1.15;0.70;;;3.70;99.90;;;;;;5033853;28;20080;-81
2021/12/05 03:13:40;;;;;;;2.13;1.98;;;3.70;99.90;;;;;;5016194;28;20493;-81
2021/12/05 03:16:06;;;;;;;;;;;3.70;99.90;;;;;;5033119;28;20042;-80
2021/12/05 03:18:32;;;;;;;0.50;0.50;;;3.80;99.90;;;;;;5032393;28;19921;-81
2021/12/05 03:20:58;;;;;;;2.08;1.98;;;3.80;99.90;;;;;;5032808;28;20056;-81
2021/12/05 03:23:26;;;;;;;1.67;1.65;;;3.70;99.90;;;;;;5032514;28;20102;-81
2021/12/05 03:25:52;;;;;;;1.27;1.17;;;3.80;99.90;;;;;;5033972;28;20064;-82
2021/12/05 03:28:18;;;;;;;1.45;1.40;;;3.70;99.90;;;;;;5034030;28;20509;-81
2021/12/05 03:30:45;;;;;;;0.68;0.68;;;3.80;99.90;;;;;;5032732;28;20038;-81
2021/12/05 03:33:11;;;;;;;2.17;1.73;;;3.80;99.90;;;;;;5034032;28;20046;-81
2021/12/05 03:35:37;;;;;;;1.05;1.05;;;3.80;99.90;;;;;;5033723;28;20037;-81
2021/12/05 03:38:03;;;;;;;1.38;0.90;;;3.80;99.90;;;;;;5034045;28;20049;-81
2021/12/05 03:40:31;;;;;;;4.15;2.55;;;3.80;99.90;;;;;;5032222;28;20077;-81
2021/12/05 03:42:58;;;;;;;0.93;0.93;;;3.70;99.90;;;;;;5032648;28;20045;-81
2021/12/05 03:45:31;;;;;;;2.50;1.27;;;3.80;99.90;;;;;;5032601;28;20120;-81
2021/12/05 03:47:57;;;;;;;1.80;1.70;;;3.80;99.90;;;;;;5033472;28;20129;-81
2021/12/05 03:50:24;;;;;;;1.42;1.35;;;3.80;99.90;;;;;;5032254;28;20091;-81
2021/12/05 03:52:50;;;;;;;2.58;1.95;;;3.70;99.90;;;;;;5032483;28;20397;-82
2021/12/05 03:55:17;;;;;;;0.93;0.93;;;3.70;99.90;;;;;;5032508;28;20041;-82
2021/12/05 03:57:42;;;;;;;5.03;3.30;;;3.70;99.90;;;;;;5015660;28;20529;-81
2021/12/05 04:00:19;;;;;;;1.30;1.30;;;3.70;99.90;;;;;;5032024;28;20140;-81
2021/12/05 04:02:47;;;;;;;1.83;1.25;;;3.70;99.90;;;;;;5032331;28;20179;-82
2021/12/05 04:05:13;;;;;;;5.05;2.47;;;3.70;99.90;;;;;;5033366;28;20053;-82
2021/12/05 04:07:38;;;;;;;1.45;1.35;;;3.70;99.90;;;;;;5033257;28;20053;-82
2021/12/05 04:10:04;;;;;;;3.17;2.95;;;3.70;99.90;;;;;;5032180;28;20139;-82
2021/12/05 04:12:30;;;;;;;0.50;0.50;;;3.60;99.90;;;;;;5015448;28;20390;-82
2021/12/05 04:14:56;;;;;;;2.85;1.58;;;3.60;99.90;;;;;;5031922;28;20060;-82
2021/12/05 04:17:23;;;;;;;1.77;1.35;;;3.60;99.90;;;;;;5015532;28;20077;-81
2021/12/05 04:19:49;;;;;;;1.45;1.40;;;3.60;99.90;;;;;;5031726;28;20132;-80
2021/12/05 04:22:15;;;;;;;21.33;3.58;;;3.60;99.90;;;;;;5031792;28;20037;-81
2021/12/05 04:24:41;;;;;;;2.60;2.40;;;3.60;99.90;;;;;;5032057;28;20049;-81
2021/12/05 04:27:08;;;;;;;2.83;2.65;;;3.60;99.90;;;;;;5031780;28;20037;-81
2021/12/05 04:29:34;;;;;;;5.78;3.83;;;3.60;99.90;;;;;;5033464;28;20486;-81
2021/12/05 04:32:01;;;;;;;2.67;2.47;;;3.60;99.90;;;;;;5031652;28;20045;-81
2021/12/05 04:34:27;;;;;;;2.75;2.65;;;3.50;99.90;;;;;;5031524;28;20548;-82
2021/12/05 04:36:58;;;;;;;1.70;1.58;;;3.60;99.90;;;;;;5031846;28;20090;-81
2021/12/05 04:39:26;;;;;;;1.20;1.15;;;3.50;99.90;;;;;;5032649;28;20128;-81
2021/12/05 04:41:53;;;;;;;8.02;1.67;;;3.50;99.90;;;;;;5015384;28;20080;-81
2021/12/05 04:44:20;;;;;;;0.55;0.55;;;3.50;99.90;;;;;;5031867;28;20033;-81
2021/12/05 04:46:47;;;;;;;1.30;1.25;;;3.50;99.90;;;;;;5031638;28;20091;-81
2021/12/05 04:49:13;;;;;;;1.90;1.80;;;3.40;99.90;;;;;;5031650;28;20136;-81
2021/12/05 04:51:41;;;;;;;2.60;1.83;;;3.50;99.90;;;;;;5031709;28;20129;-81
2021/12/05 04:54:11;;;;;;;5.05;1.33;;;3.50;99.90;;;;;;5031348;28;20068;-81
2021/12/05 04:56:37;;;;;;;1.00;0.60;;;3.40;99.90;;;;;;5031679;28;20120;-82
2021/12/05 04:59:11;;;;;;;0.90;0.80;;;3.40;99.90;;;;;;5031412;28;20466;-82
2021/12/05 05:01:36;;;;;;;0.45;0.45;;;3.40;99.90;;;;;;5031334;28;20608;-81
2021/12/05 05:04:06;;;;;;;1.35;0.93;;;3.40;99.90;;;;;;5031366;28;20077;-81
2021/12/05 05:06:32;;;;;;;0.32;0.32;;;3.40;99.90;;;;;;5032515;28;20049;-81
2021/12/05 05:08:58;;;;;;;0.52;0.52;;;3.40;99.90;;;;;;5031262;28;20402;-81
2021/12/05 05:11:25;;;;;;;1.08;0.65;;;3.30;99.90;;;;;;5031200;28;20038;-81
2021/12/05 05:13:51;;;;;;;1.42;1.35;;;3.40;99.90;;;;;;5015047;28;20104;-81
2021/12/05 05:16:20;;;;;;;4.32;1.98;;;3.30;99.90;;;;;;5032869;28;20050;-81
2021/12/05 05:18:56;;;;;;;1.27;0.88;;;3.40;99.90;;;;;;5035070;28;20056;-81
2021/12/05 05:41:40;;;;;;;0.30;0.30;;;3.20;99.90;;;;;;4955541;28;20547;-81
2021/12/05 05:46:52;;;;;;;2.50;2.40;;;3.20;99.90;;;;;;4955425;29;20130;-81
2021/12/05 05:51:59;;;;;;;3.13;1.75;;;3.20;99.90;;;;;;4955503;29;20051;-81
2021/12/05 05:54:26;;;;;;;0.30;0.30;;;3.20;99.90;;;;;;4939439;29;20061;-81
2021/12/05 05:56:58;;;;;;;2.40;2.20;;;3.20;99.90;;;;;;4939349;29;20059;-82
2021/12/05 06:00:10;;;;;;;;;;;3.20;99.90;;;;;;4955835;29;20063;-81
2021/12/05 06:04:58;;;;;;;0.65;0.65;;;3.10;99.90;;;;;;4901104;29;20056;-81
2021/12/05 06:07:25;;;;;;;0.52;0.52;;;3.20;99.90;;;;;;4958073;28;20109;-81
2021/12/05 06:09:51;;;;;;;3.90;1.35;;;3.10;99.90;;;;;;4958312;28;20050;-81
2021/12/05 06:12:16;;;;;;;0.43;0.43;;;3.10;99.90;;;;;;4958288;28;20047;-80
2021/12/05 06:14:42;;;;;;;0.57;0.57;;;3.10;99.90;;;;;;4974619;28;20074;-81
2021/12/05 06:17:08;;;;;;;0.82;0.82;;;3.10;99.90;;;;;;4974288;28;20527;-81
2021/12/05 06:19:33;;;;;;;16.88;1.60;;;3.20;99.90;;;;;;4958335;28;20058;-81
2021/12/05 06:21:59;;;;;;;0.73;0.73;;;3.10;99.90;;;;;;4974205;28;20055;-81
2021/12/05 06:24:26;;;;;;;0.32;0.32;;;3.10;99.90;;;;;;4958146;28;20078;-81
2021/12/05 06:26:51;;;;;;;0.50;0.50;;;3.10;99.90;;;;;;4957970;28;20514;-81
2021/12/05 06:29:21;;;;;;;0.68;0.65;;;3.20;99.90;;;;;;4957907;28;20059;-81
2021/12/05 06:31:59;;;;;;;7.97;0.93;;;3.10;99.90;;;;;;4957985;28;20081;-80
2021/12/05 06:37:26;;;;;;;3.95;3.60;;;3.20;99.90;;;;;;4957959;28;20109;-81
2021/12/05 06:42:50;;;;;;;2.28;2.00;;;3.10;99.90;;;;;;5015568;28;20100;-81
2021/12/05 06:48:00;;;;;;;1.48;1.48;;;3.10;99.90;;;;;;5035130;28;20508;-81
2021/12/05 06:50:26;;;;;;;6.38;1.50;;;3.10;99.90;;;;;;5033444;28;20081;-80
2021/12/05 06:52:52;;;;;;;0.95;0.85;;;3.10;99.90;;;;;;5033580;28;20046;-80
2021/12/05 06:55:18;;;;;;;4.65;4.35;;;3.20;99.90;;;;;;5016924;28;20410;-80
2021/12/05 06:57:44;;;;;;;1.65;1.08;;;3.10;99.90;;;;;;5033392;28;20041;-80
2021/12/05 07:00:17;;;;;;;1.02;1.02;;;3.10;99.90;;;;;;5033272;28;20064;-80
2021/12/05 07:02:43;;;;;;;0.52;0.52;;;3.20;99.90;;;;;;5033119;28;20141;-80
2021/12/05 07:05:37;;;;;;;0.50;0.50;;;3.20;99.90;;;;;;5033275;28;20144;-80
2021/12/05 07:08:04;;;;;;;1.15;1.15;;;3.20;99.90;;;;;;5034633;28;20050;-80
2021/12/05 07:10:32;;;;;;;1.83;1.25;;;3.20;99.90;;;;;;5016860;28;20049;-80
2021/12/05 07:21:24;;;;;;;1.95;1.85;;;3.30;99.90;;;;;;5032663;28;20053;-80
2021/12/05 07:24:02;;;;;;;1.60;1.48;;;3.20;99.90;;;;;;5034375;28;20488;-80
2021/12/05 07:42:44;;;;;;;1.67;1.58;;;3.40;99.90;;;;;;5033689;28;20474;-81
2021/12/05 07:45:14;;;;;;;1.85;1.70;;;3.40;99.90;;;;;;5032849;28;20049;-81
2021/12/05 07:47:44;;;;;;;3.17;2.95;;;3.30;99.90;;;;;;5033963;28;20046;-81
2021/12/05 07:50:11;;;;;;;8.75;2.35;;;3.40;99.90;;;;;;5032667;28;20052;-81
2021/12/05 07:52:42;;;;;;;9.32;4.75;;;3.40;99.90;;;;;;5032134;28;20494;-81
2021/12/05 07:55:21;;;;;;;4.28;2.38;;;3.40;99.90;;;;;;5033519;28;20099;-81
2021/12/05 07:58:26;;;;;;;3.08;2.72;;;3.40;99.90;;;;;;5032494;28;20049;-81
2021/12/05 08:01:03;;;;;;;1.92;1.83;;;3.40;99.90;;;;;;5033265;28;20512;-81
2021/12/05 08:14:48;;;;;;;0.88;0.77;;;3.50;99.90;;;;;;4972375;28;20430;-81
2021/12/05 08:17:18;;;;;;;4.22;1.73;;;3.60;99.90;;;;;;4956022;28;20085;-80
2021/12/05 08:19:44;;;;;;;1.73;0.75;;;3.60;99.90;;;;;;4956154;28;20059;-81
2021/12/05 08:22:10;;;;;;;2.55;2.40;;;3.60;99.90;;;;;;4956326;28;20510;-81
2021/12/05 08:24:39;;;;;;;1.25;0.98;;;3.60;99.90;;;;;;4972150;28;20055;-81
2021/12/05 08:27:07;;;;;;;2.42;2.15;;;3.60;99.90;;;;;;4955950;28;20125;-81
2021/12/05 08:29:44;;;;;;;4.57;3.28;;;3.60;99.90;;;;;;4972226;28;20462;-81
2021/12/05 08:32:22;;;;;;;1.33;1.23;;;3.70;99.90;;;;;;4972050;28;20582;-81
2021/12/05 08:37:40;;;;;;;5.85;3.42;;;3.70;99.90;;;;;;4972105;28;20043;-81
2021/12/05 08:43:28;;;;;;;1.80;1.70;;;3.70;99.90;;;;;;4955555;28;20086;-81
2021/12/05 09:24:18;;;;;;;5.40;1.48;;;4.20;99.90;;;;;;5035007;28;20502;-81
2021/12/05 09:26:59;;;;;;;2.25;1.38;;;4.20;99.90;;;;;;5034868;28;20042;-81
2021/12/05 09:40:29;;;;;;;5.75;1.85;;;4.30;99.90;;;;;;5034511;28;20060;-81
2021/12/05 10:02:24;;;;;;;1.25;0.80;;;4.50;99.90;;;;;;5035253;28;20077;-81
2021/12/05 10:26:57;;;;;;;2.75;1.00;;;4.70;99.90;;;;;;5035255;28;20045;-81
2021/12/05 10:38:00;;;;;;;0.93;0.40;;;4.70;99.90;;;;;;5033865;28;20132;-81
2021/12/05 10:40:40;;;;;;;0.50;0.50;;;4.70;99.90;;;;;;5034806;28;20103;-81
2021/12/05 10:43:19;;;;;;;0.40;0.40;;;4.70;99.90;;;;;;5034789;28;20564;-81
2021/12/05 10:46:12;;;;;;;0.50;0.50;;;4.70;99.90;;;;;;5035036;28;20049;-81
2021/12/05 10:48:40;;;;;;;1.17;1.08;;;4.70;99.90;;;;;;5034956;28;20455;-81
2021/12/05 10:51:12;;;;;;;0.57;0.57;;;4.70;99.90;;;;;;5033342;28;20049;-81
2021/12/05 10:53:47;;;;;;;1.85;1.67;;;4.70;99.90;;;;;;5033373;28;20049;-81
2021/12/05 10:56:26;;;;;;;0.25;0.25;;;4.70;99.90;;;;;;5033365;28;20072;-80
2021/12/05 10:58:51;;;;;;;0.45;0.43;;;4.70;99.90;;;;;;5033623;28;20104;-80
2021/12/05 11:01:46;;;;;;;0.50;0.50;;;4.70;99.90;;;;;;5033149;28;20437;-81
2021/12/05 11:04:21;;;;;;;2.20;2.10;;;4.70;99.90;;;;;;5033508;28;20099;-81
2021/12/05 11:07:06;;;;;;;1.38;0.82;;;4.70;99.90;;;;;;5032761;28;20053;-80
2021/12/05 11:09:44;;;;;;;0.88;0.50;;;4.70;99.90;;;;;;5032858;28;20045;-81
2021/12/05 11:12:23;;;;;;;0.70;0.70;;;4.70;99.90;;;;;;5034353;28;20087;-80
2021/12/05 11:14:55;;;;;;;3.90;3.60;;;4.70;99.90;;;;;;5033276;28;20081;-80
2021/12/05 11:17:24;;;;;;;4.43;2.50;;;4.70;99.90;;;;;;5032834;28;20041;-80
2021/12/05 11:19:53;;;;;;;1.30;1.13;;;4.70;99.90;;;;;;5032659;28;20128;-80
2021/12/05 11:22:28;;;;;;;0.57;0.57;;;4.70;99.90;;;;;;5032720;28;20092;-81
2021/12/05 11:24:58;;;;;;;0.90;0.63;;;4.70;99.90;;;;;;5032994;28;20051;-81
2021/12/05 11:27:33;;;;;;;3.38;3.15;;;4.70;99.90;;;;;;5032854;28;20061;-81
2021/12/05 11:30:23;;;;;;;2.95;1.42;;;4.70;99.90;;;;;;5032558;28;20087;-80
2021/12/05 11:32:59;;;;;;;1.10;0.70;;;4.70;99.90;;;;;;5032597;28;20474;-80
2021/12/05 11:35:25;;;;;;;1.23;1.10;;;4.70;99.90;;;;;;5032547;28;20052;-81
2021/12/05 11:37:57;;;;;;;1.42;0.75;;;4.70;99.90;;;;;;5032590;28;20057;-81
2021/12/05 11:40:27;;;;;;;1.13;1.13;;;4.70;99.90;;;;;;5033804;28;20052;-81
2021/12/05 11:43:01;;;;;;;2.10;1.27;;;4.70;99.90;;;;;;5033979;28;20079;-81
2021/12/05 11:45:28;;;;;;;0.80;0.75;;;4.70;99.90;;;;;;5032643;28;20077;-81
2021/12/05 11:47:55;;;;;;;1.35;1.25;;;4.70;99.90;;;;;;5034056;28;20076;-81
2021/12/05 11:50:31;;;;;;;4.03;3.78;;;4.70;99.90;;;;;;5032244;28;20045;-81
2021/12/05 11:52:57;;;;;;;1.60;1.52;;;4.80;99.90;;;;;;5032529;28;20052;-80
2021/12/05 11:55:27;;;;;;;0.80;0.80;;;4.70;99.90;;;;;;5032784;28;20494;-80
2021/12/05 11:57:53;;;;;;;3.50;1.73;;;4.70;99.90;;;;;;5032195;28;20096;-80
2021/12/05 12:00:21;;;;;;;0.30;0.30;;;4.70;99.90;;;;;;5032127;28;20110;-80
2021/12/05 12:02:49;;;;;;;2.05;1.92;;;4.70;99.90;;;;;;5031901;28;20046;-80
2021/12/05 12:05:31;;;;;;;0.38;0.30;;;4.70;99.90;;;;;;5033077;28;20045;-79
2021/12/05 12:08:07;;;;;;;2.70;1.77;;;4.70;99.90;;;;;;5032100;28;20409;-80
2021/12/05 12:10:46;;;;;;;0.95;0.93;;;4.70;99.90;;;;;;5032200;28;20132;-80
2021/12/05 12:13:23;;;;;;;0.38;0.38;;;4.70;99.90;;;;;;5032256;28;20483;-80
2021/12/05 12:15:58;;;;;;;3.95;2.72;;;4.70;99.90;;;;;;5033452;28;20131;-80
2021/12/05 12:18:28;;;;;;;1.38;1.17;;;4.70;99.90;;;;;;5033538;28;20172;-80
2021/12/05 12:20:56;;;;;;;1.58;0.95;;;4.70;99.90;;;;;;5031666;28;20042;-80
2021/12/05 12:23:23;;;;;;;1.13;0.80;;;4.70;99.90;;;;;;5032051;28;20501;-80
2021/12/05 12:25:53;;;;;;;2.20;2.10;;;4.70;99.90;;;;;;5031484;28;20095;-81
2021/12/05 12:28:19;;;;;;;1.65;0.93;;;4.70;99.90;;;;;;5031601;28;20049;-80
2021/12/05 12:30:52;;;;;;;0.80;0.77;;;4.70;99.90;;;;;;5031799;28;20494;-81
2021/12/05 12:33:28;;;;;;;1.70;1.60;;;4.80;99.90;;;;;;5031988;28;20382;-80
2021/12/05 12:35:55;;;;;;;2.60;0.52;;;4.80;99.90;;;;;;5031892;28;20120;-80
2021/12/05 12:38:33;;;;;;;0.45;0.45;;;4.80;99.90;;;;;;5031446;28;20494;-80
2021/12/05 12:41:12;;;;;;;2.50;2.35;;;4.80;99.90;;;;;;5014960;28;20042;-80
2021/12/05 12:43:51;;;;;;;0.70;0.70;;;4.80;99.90;;;;;;5032909;28;20151;-80
2021/12/05 12:46:19;;;;;;;0.77;0.77;;;4.90;99.90;;;;;;5031226;28;20041;-80
2021/12/05 12:48:47;;;;;;;0.47;0.47;;;4.90;99.90;;;;;;5032630;28;20052;-80
2021/12/05 12:51:44;;;;;;;1.50;1.40;;;4.90;99.90;;;;;;5031508;28;20113;-80
2021/12/05 12:54:14;;;;;;;2.30;0.88;;;4.90;99.90;;;;;;4974964;28;20153;-80
2021/12/05 12:56:42;;;;;;;1.80;1.40;;;4.90;99.90;;;;;;4975154;28;20046;-80
2021/12/05 12:59:14;;;;;;;4.03;2.65;;;4.90;99.90;;;;;;4975098;28;20113;-80
2021/12/05 13:05:03;;;;;;;1.05;1.02;;;5.00;99.90;;;;;;4991162;28;20104;-80
2021/12/05 13:10:44;;;;;;;0.50;0.50;;;5.00;99.90;;;;;;4974801;28;20158;-80
2021/12/05 13:13:19;;;;;;;1.42;1.33;;;5.00;99.90;;;;;;4991141;28;20176;-81
2021/12/05 13:15:57;;;;;;;3.83;2.15;;;5.00;99.90;;;;;;4991203;28;20129;-80
2021/12/05 13:18:30;;;;;;;1.08;1.08;;;5.10;99.90;;;;;;4958735;28;20149;-81
2021/12/05 13:21:13;;;;;;;7.55;2.95;;;5.10;99.90;;;;;;4974636;28;20054;-80
2021/12/05 13:23:47;;;;;;;0.90;0.90;;;5.10;99.90;;;;;;4975098;28;20058;-80
2021/12/05 13:26:36;;;;;;;0.50;0.50;;;5.20;99.90;;;;;;4974727;28;20133;-82
2021/12/05 13:29:14;;;;;;;1.35;0.47;;;5.10;99.90;;;;;;4990983;28;20054;-80
2021/12/05 13:31:39;;;;;;;0.47;0.47;;;5.10;99.90;;;;;;5029700;28;20061;-83
2021/12/05 13:34:40;;;;;;;2.28;2.17;;;5.10;99.90;;;;;;5031161;28;20389;-82
2021/12/05 13:37:05;;;;;;;0.30;0.30;;;5.10;99.90;;;;;;5029482;28;20054;-83
2021/12/05 13:39:44;;;;;;;0.50;0.50;;;5.10;99.90;;;;;;5018130;28;20111;-80
2021/12/05 13:42:19;;;;;;;0.73;0.73;;;5.20;99.90;;;;;;5035109;28;20057;-81
2021/12/05 13:45:06;;;;;;;0.85;0.85;;;5.20;99.90;;;;;;5036288;28;20406;-80
2021/12/05 13:47:41;;;;;;;1.80;1.45;;;5.10;99.90;;;;;;5036112;28;20053;-81
2021/12/05 13:50:19;;;;;;;0.65;0.65;;;5.10;99.90;;;;;;5034833;28;20045;-80
2021/12/05 13:53:06;;;;;;;1.63;1.60;;;5.10;99.90;;;;;;5034931;28;20080;-80
2021/12/05 13:55:53;;;;;;;1.70;1.23;;;5.10;99.90;;;;;;5033224;28;20052;-80
2021/12/05 13:58:32;;;;;;;1.30;1.20;;;5.10;99.90;;;;;;5036119;28;20046;-80
2021/12/05 14:01:15;;;;;;;1.20;1.20;;;5.10;99.90;;;;;;5034255;28;20057;-80
2021/12/05 14:04:06;;;;;;;1.95;1.23;;;5.10;99.90;;;;;;5034727;28;20053;-81
2021/12/05 14:06:41;;;;;;;1.02;1.02;;;5.00;99.90;;;;;;5034127;28;20068;-80
2021/12/05 14:09:18;;;;;;;0.88;0.88;;;5.10;99.90;;;;;;5035682;28;20054;-79
2021/12/05 14:12:14;;;;;;;1.83;1.15;;;5.00;99.90;;;;;;5050801;28;20414;-80
2021/12/05 14:14:53;;;;;;;3.75;1.45;;;5.00;99.90;;;;;;5032979;28;20061;-80
2021/12/05 14:17:30;;;;;;;5.82;1.88;;;5.00;99.90;;;;;;5034340;28;20457;-80
2021/12/05 14:20:07;;;;;;;1.08;0.98;;;5.00;99.90;;;;;;5035176;28;20052;-80
2021/12/05 14:22:35;;;;;;;1.60;1.50;;;5.00;99.90;;;;;;5034007;28;20045;-80
2021/12/05 14:25:15;;;;;;;0.60;0.60;;;5.00;99.90;;;;;;5035385;28;20405;-80
2021/12/05 14:27:53;;;;;;;3.10;2.17;;;5.00;99.90;;;;;;5035191;28;20049;-79
2021/12/05 14:30:23;;;;;;;0.98;0.98;;;4.90;99.90;;;;;;5035318;28;20440;-80
2021/12/05 14:32:53;;;;;;;1.17;1.17;;;5.00;99.90;;;;;;5034100;28;20557;-79
2021/12/05 14:35:22;;;;;;;1.20;1.20;;;4.90;99.90;;;;;;5034914;28;20037;-80
2021/12/05 14:37:50;;;;;;;0.38;0.38;;;4.90;99.90;;;;;;5033740;28;20490;-80
2021/12/05 14:40:20;;;;;;;7.97;0.80;;;4.90;99.90;;;;;;5034681;28;20459;-80
2021/12/05 14:42:50;;;;;;;1.15;1.15;;;4.90;99.90;;;;;;5035089;28;20072;-80
2021/12/05 14:45:21;;;;;;;1.40;1.30;;;4.90;99.90;;;;;;5033416;28;20090;-79
2021/12/05 14:47:49;;;;;;;3.60;1.90;;;4.90;99.90;;;;;;5034197;28;20050;-80
2021/12/05 14:50:19;;;;;;;0.75;0.75;;;4.90;99.90;;;;;;5033081;28;20175;-79
2021/12/05 14:52:48;;;;;;;1.63;1.52;;;4.90;99.90;;;;;;5033312;28;20486;-79
2021/12/05 14:55:17;;;;;;;0.55;0.55;;;4.90;99.90;;;;;;5017003;28;20054;-80
2021/12/05 14:58:08;;;;;;;2.88;2.70;;;4.90;99.90;;;;;;5033369;28;20501;-81
2021/12/05 15:00:40;;;;;;;1.63;1.52;;;4.80;99.90;;;;;;5033368;28;20444;-80
2021/12/05 15:03:17;;;;;;;5.72;4.88;;;4.80;99.90;;;;;;5034716;28;20080;-81
2021/12/05 15:05:50;;;;;;;2.63;2.42;;;4.90;99.90;;;;;;5034419;28;20127;-82
2021/12/05 15:08:20;;;;;;;2.72;2.53;;;4.90;99.90;;;;;;5034755;28;20441;-84
2021/12/05 15:10:51;;;;;;;1.98;1.00;;;4.80;99.90;;;;;;5033548;28;20531;-83
2021/12/05 15:13:17;;;;;;;0.93;0.93;;;4.80;99.90;;;;;;5033190;28;20053;-83
2021/12/05 15:15:43;;;;;;;0.20;0.20;;;4.80;99.90;;;;;;5034513;28;20038;-84
2021/12/05 15:18:28;;;;;;;2.40;2.22;;;4.80;99.90;;;;;;5033132;28;20041;-84
2021/12/05 15:20:55;;;;;;;1.05;1.05;;;4.80;99.90;;;;;;5034246;28;20081;-85
2021/12/05 15:23:26;;;;;;;0.98;0.63;;;4.80;99.90;;;;;;5034216;28;20475;-85
2021/12/05 15:25:52;;;;;;;3.05;2.17;;;4.80;99.90;;;;;;5033275;28;20047;-84
2021/12/05 15:28:18;;;;;;;7.00;4.60;;;4.80;99.90;;;;;;5034045;28;20045;-84
2021/12/05 15:30:47;;;;;;;1.92;1.83;;;4.70;99.90;;;;;;5034490;28;20041;-84
2021/12/05 15:33:17;;;;;;;1.95;1.85;;;4.70;99.90;;;;;;5034055;28;20045;-82
2021/12/05 15:35:43;;;;;;;1.00;0.80;;;4.70;99.90;;;;;;5032722;28;20053;-84
2021/12/05 15:38:12;;;;;;;1.25;1.17;;;4.70;99.90;;;;;;5034269;28;20081;-84
2021/12/05 15:40:41;;;;;;;0.90;0.90;;;4.70;99.90;;;;;;5032901;28;20533;-84
2021/12/05 15:43:09;;;;;;;0.63;0.63;;;4.70;99.90;;;;;;5034153;28;20041;-82
2021/12/05 15:45:36;;;;;;;3.08;1.75;;;4.70;99.90;;;;;;5033935;28;20052;-83
2021/12/05 15:48:03;;;;;;;3.22;1.50;;;4.60;99.90;;;;;;5049314;28;20394;-85
2021/12/05 15:50:34;;;;;;;2.13;1.70;;;4.70;99.90;;;;;;5016352;28;20474;-82
2021/12/05 15:53:03;;;;;;;;;;;4.60;99.90;;;;;;5034426;28;20041;-84
2021/12/05 15:55:39;;;;;;;0.57;0.57;;;4.60;99.90;;;;;;5032400;28;20389;-85
2021/12/05 15:58:20;;;;;;;0.63;0.63;;;4.60;99.90;;;;;;5015789;28;20045;-85
2021/12/05 16:00:54;;;;;;;1.33;0.80;;;4.60;99.90;;;;;;5033515;28;20518;-83
2021/12/05 16:03:25;;;;;;;1.70;1.65;;;4.60;99.90;;;;;;5034077;28;20049;-85
2021/12/05 16:05:55;;;;;;;3.83;3.73;;;4.60;99.90;;;;;;5033549;28;20057;-86
2021/12/05 16:08:21;;;;;;;3.22;3.03;;;4.50;99.90;;;;;;5032606;28;20437;-88
2021/12/05 16:10:50;;;;;;;3.22;2.58;;;4.50;99.90;;;;;;5032249;28;20088;-85
2021/12/05 16:13:17;;;;;;;1.70;1.60;;;4.50;99.90;;;;;;5032808;28;20049;-88
2021/12/05 16:15:46;;;;;;;10.20;2.25;;;4.50;99.90;;;;;;5032159;28;20041;-83
2021/12/05 16:18:13;;;;;;;1.58;0.82;;;4.50;99.90;;;;;;5032618;28;20053;-80
2021/12/05 16:20:48;;;;;;;0.70;0.70;;;4.60;99.90;;;;;;5015460;28;20046;-84
2021/12/05 16:23:25;;;;;;;14.20;6.93;;;4.50;99.90;;;;;;5032432;28;20100;-85
2021/12/05 16:26:11;;;;;;;4.68;1.85;;;4.50;99.90;;;;;;5033479;28;20041;-85
2021/12/05 16:28:46;;;;;;;1.65;1.55;;;4.50;99.90;;;;;;5034513;28;20049;-86
2021/12/05 16:31:30;;;;;;;1.88;1.33;;;4.50;99.90;;;;;;5036658;28;20045;-83
2021/12/05 16:34:00;;;;;;;4.20;2.20;;;4.50;99.90;;;;;;5033355;28;20056;-85
2021/12/05 16:36:33;;;;;;;7.53;3.30;;;4.50;99.90;;;;;;5033186;28;20045;-84
2021/12/05 16:39:13;;;;;;;7.65;2.92;;;4.50;99.90;;;;;;5032989;28;20051;-84
2021/12/05 16:41:46;;;;;;;9.85;3.60;;;4.50;99.90;;;;;;5033355;28;20053;-84
2021/12/05 16:44:20;;;;;;;3.83;2.15;;;4.50;99.90;;;;;;5033286;28;20073;-82
2021/12/05 16:46:51;;;;;;;2.90;2.50;;;4.50;99.90;;;;;;5031816;28;20096;-84
2021/12/05 16:49:21;;;;;;;1.98;1.38;;;4.40;99.90;;;;;;5031816;28;20133;-85
2021/12/05 16:51:59;;;;;;;2.08;1.63;;;4.40;99.90;;;;;;5032087;28;20045;-84
2021/12/05 16:54:33;;;;;;;2.97;1.65;;;4.40;99.90;;;;;;5033152;28;20393;-84
2021/12/05 16:57:13;;;;;;;1.77;1.65;;;4.40;99.90;;;;;;5033128;28;20080;-83
2021/12/05 16:59:48;;;;;;;3.08;2.38;;;4.40;99.90;;;;;;5032936;28;20060;-83
2021/12/05 17:02:17;;;;;;;2.17;2.08;;;4.40;99.90;;;;;;5033009;28;20084;-82
2021/12/05 17:05:11;;;;;;;4.00;3.70;;;4.40;99.90;;;;;;5031840;28;20038;-83
2021/12/05 17:08:16;;;;;;;1.05;1.05;;;4.40;99.90;;;;;;4991411;28;20054;-83
2021/12/05 17:10:55;;;;;;;4.78;1.13;;;4.40;99.90;;;;;;4991254;28;20054;-82
2021/12/05 17:13:24;;;;;;;2.83;2.65;;;4.40;99.90;;;;;;4979018;28;20065;-83
2021/12/05 17:15:59;;;;;;;5.68;2.72;;;4.40;99.90;;;;;;4978793;28;20046;-85
2021/12/05 17:18:56;;;;;;;1.88;1.85;;;4.40;99.90;;;;;;4978796;28;20124;-84
2021/12/05 17:21:37;;;;;;;3.15;2.92;;;4.40;99.90;;;;;;4962698;28;20042;-83
2021/12/05 17:24:07;;;;;;;5.47;1.92;;;4.40;99.90;;;;;;4994954;28;20047;-84
2021/12/05 17:26:37;;;;;;;6.00;3.95;;;4.40;99.90;;;;;;4994983;28;20058;-84
2021/12/05 17:29:19;;;;;;;4.07;3.78;;;4.40;99.90;;;;;;4962372;28;20046;-83
2021/12/05 17:32:16;;;;;;;;;;;4.40;99.90;;;;;;4978894;28;20054;-83
2021/12/05 17:34:48;;;;;;;3.20;2.80;;;4.30;99.90;;;;;;4956269;28;20388;-84
2021/12/05 17:37:24;;;;;;;2.53;2.45;;;4.40;99.90;;;;;;4939975;29;20047;-83
2021/12/05 17:39:51;;;;;;;2.13;1.95;;;4.30;99.90;;;;;;4940047;29;20058;-83
2021/12/05 17:42:21;;;;;;;3.90;3.53;;;4.30;99.90;;;;;;4956069;29;20106;-85
2021/12/05 17:44:50;;;;;;;6.80;1.70;;;4.40;99.90;;;;;;4976507;28;20065;-84
2021/12/05 17:47:17;;;;;;;3.65;3.45;;;4.50;99.90;;;;;;4978339;28;20049;-84
2021/12/05 17:49:48;;;;;;;5.55;4.97;;;4.30;99.90;;;;;;4994903;28;20566;-84
2021/12/05 17:52:16;;;;;;;2.65;2.28;;;4.30;99.90;;;;;;4978678;28;20407;-84
2021/12/05 17:55:10;;;;;;;3.03;2.83;;;4.30;99.90;;;;;;4994553;28;20589;-82
2021/12/05 17:57:40;;;;;;;4.68;4.05;;;4.30;99.90;;;;;;4993935;28;20057;-82
2021/12/05 18:00:34;;;;;;;3.53;2.40;;;4.30;99.90;;;;;;4978095;28;20125;-82
2021/12/05 18:03:04;;;;;;;3.50;2.38;;;4.30;99.90;;;;;;4978273;28;20634;-82
2021/12/05 18:05:36;;;;;;;1.95;0.93;;;4.30;99.90;;;;;;4977963;28;20466;-82
2021/12/05 18:08:10;;;;;;;1.38;1.27;;;4.30;99.90;;;;;;4978020;28;20062;-83
2021/12/05 18:10:38;;;;;;;0.68;0.68;;;4.20;99.90;;;;;;4993928;28;20065;-84
2021/12/05 18:13:09;;;;;;;4.05;3.92;;;4.20;99.90;;;;;;5034246;28;20452;-83
2021/12/05 18:15:36;;;;;;;2.40;1.92;;;4.20;99.90;;;;;;5034521;28;20084;-82
2021/12/05 18:18:05;;;;;;;2.00;1.83;;;4.20;99.90;;;;;;5035827;28;20073;-83
2021/12/05 18:20:34;;;;;;;4.82;4.43;;;4.20;99.90;;;;;;5034216;28;20045;-84
2021/12/05 18:23:04;;;;;;;2.05;1.95;;;4.20;99.90;;;;;;5035470;28;20046;-84
2021/12/05 18:25:30;;;;;;;1.65;1.55;;;4.10;99.90;;;;;;5035704;28;20037;-84
2021/12/05 18:27:56;;;;;;;6.50;1.88;;;4.20;99.90;;;;;;5034229;28;20049;-83
2021/12/05 18:30:25;;;;;;;4.18;1.90;;;4.10;99.90;;;;;;5017765;28;20049;-84
2021/12/05 18:32:53;;;;;;;3.60;2.10;;;4.10;99.90;;;;;;5035307;28;20083;-82